Airfield :
LOGIN :

Register | Disclaimer

   EN    FR    IT 

 










Legend :    VFR   Marginal VFR   IFR   Intensive IFR   Very Intensive IFR
Visi :
Ceiling :
>= 8 km
>= 3000ft
5 to 8 km
1000 to 3000 ft
1500m to 5 km
500 to 1000 ft
800 to 1500m
200 to 500 ft
< 800m
< 200 ft
Symbols :   Thunderstorms  Fog  Heavy snow  Heavy precipitations  Wind > 20 kt
SIGMETs :     Misc.  Thunderstorms  Icing  Turbulence  Mountain Waves  Volcanic Ashes







- Airport Elevation : 1306 ft
- IATA code : ACH


LSZR - Alten Rhein

CURRENT METAR :
  • 141720Z VRB03KT 9999 SCT075 21/17 Q1017 NOSIG RMK M

EXPIRED METARs :
  • 141650Z 09003KT 060V140 9999 SCT075 22/17 Q1017 NOSIG RMK M
  • 141620Z 10004KT 9999 SCT075 21/16 Q1017 NOSIG RMK L
  • 141550Z 10005KT 9999 SCT075 20/16 Q1017 NOSIG RMK L
  • 141520Z 12005KT 080V180 9999 BKN070 21/16 Q1017 NOSIG RMK K
  • 141450Z 12010KT CAVOK 19/14 Q1017 NOSIG RMK K

TAF TAF LSZR
Valid from the 14 at 15:00 until the 15 at 00:00 UTC


141425Z 1415/1424 16005KT 9999 FEW035 SCT045 BKN070
PROB40
TEMPO 1415/1419 SHRA SCT040TCU BKN050
ATIS : +41 71 858 51 66
No reported NOTAMs for that airfield.



MET'MAP, your aeronautical weather chart ! - Copyright ORBIFLY December 2007 - Disclaimer

ORBIFLY MET'MAP TEAM :

Programming & Development : Alexandra Zaïnal
Concept & Development : Baudouin d'Aumeries
Co-Development & Prog : Marc-Olivier Méhu
Technical & hardware support : Manuel Goepfert

Contact : metmap@orbifly.com




SOURCES & CREDITS :

   NOAA